sensor_id;sensor_type;location;lat;lon;timestamp;P1;durP1;ratioP1;P2;durP2;ratioP2
3085;SDS011;52812;48.960;9.108;2023-12-29T00:02:09;3.00;;;2.57;;
3085;SDS011;52812;48.960;9.108;2023-12-29T00:04:34;3.30;;;2.73;;
3085;SDS011;52812;48.960;9.108;2023-12-29T00:07:01;3.60;;;2.70;;
3085;SDS011;52812;48.960;9.108;2023-12-29T00:09:27;3.57;;;2.83;;
3085;SDS011;52812;48.960;9.108;2023-12-29T00:11:52;3.23;;;2.93;;
3085;SDS011;52812;48.960;9.108;2023-12-29T00:14:19;3.63;;;3.33;;
3085;SDS011;52812;48.960;9.108;2023-12-29T00:16:44;3.23;;;2.93;;
3085;SDS011;52812;48.960;9.108;2023-12-29T00:19:11;4.03;;;2.90;;
3085;SDS011;52812;48.960;9.108;2023-12-29T00:21:37;4.37;;;3.37;;
3085;SDS011;52812;48.960;9.108;2023-12-29T00:24:03;3.90;;;3.10;;
3085;SDS011;52812;48.960;9.108;2023-12-29T00:26:30;3.43;;;2.80;;
3085;SDS011;52812;48.960;9.108;2023-12-29T00:28:55;3.50;;;3.20;;
3085;SDS011;52812;48.960;9.108;2023-12-29T00:31:21;3.90;;;3.50;;
3085;SDS011;52812;48.960;9.108;2023-12-29T00:33:46;3.87;;;3.37;;
3085;SDS011;52812;48.960;9.108;2023-12-29T00:36:15;4.00;;;3.60;;
3085;SDS011;52812;48.960;9.108;2023-12-29T00:38:41;4.40;;;3.50;;
3085;SDS011;52812;48.960;9.108;2023-12-29T00:41:07;4.50;;;3.50;;
3085;SDS011;52812;48.960;9.108;2023-12-29T00:43:33;4.90;;;3.83;;
3085;SDS011;52812;48.960;9.108;2023-12-29T00:46:00;4.90;;;3.40;;
3085;SDS011;52812;48.960;9.108;2023-12-29T00:48:26;5.70;;;3.70;;
3085;SDS011;52812;48.960;9.108;2023-12-29T00:50:52;5.20;;;3.87;;
3085;SDS011;52812;48.960;9.108;2023-12-29T00:53:17;4.63;;;3.50;;
3085;SDS011;52812;48.960;9.108;2023-12-29T00:55:43;4.63;;;3.40;;
3085;SDS011;52812;48.960;9.108;2023-12-29T00:58:08;4.57;;;3.63;;
3085;SDS011;52812;48.960;9.108;2023-12-29T01:00:34;6.77;;;3.93;;
3085;SDS011;52812;48.960;9.108;2023-12-29T01:02:59;5.00;;;4.00;;
3085;SDS011;52812;48.960;9.108;2023-12-29T01:05:25;4.80;;;3.50;;
3085;SDS011;52812;48.960;9.108;2023-12-29T01:07:52;4.37;;;3.73;;
3085;SDS011;52812;48.960;9.108;2023-12-29T01:10:19;5.70;;;4.20;;
3085;SDS011;52812;48.960;9.108;2023-12-29T01:12:45;5.70;;;4.10;;
3085;SDS011;52812;48.960;9.108;2023-12-29T01:15:11;5.73;;;4.30;;
3085;SDS011;52812;48.960;9.108;2023-12-29T01:17:36;5.90;;;4.13;;
3085;SDS011;52812;48.960;9.108;2023-12-29T01:20:02;5.17;;;3.87;;
3085;SDS011;52812;48.960;9.108;2023-12-29T01:22:29;6.90;;;4.37;;
3085;SDS011;52812;48.960;9.108;2023-12-29T01:24:55;5.40;;;4.33;;
3085;SDS011;52812;48.960;9.108;2023-12-29T01:27:20;5.43;;;4.73;;
3085;SDS011;52812;48.960;9.108;2023-12-29T01:29:46;4.90;;;4.07;;
3085;SDS011;52812;48.960;9.108;2023-12-29T01:32:12;7.20;;;4.33;;
3085;SDS011;52812;48.960;9.108;2023-12-29T01:34:37;5.53;;;3.90;;
3085;SDS011;52812;48.960;9.108;2023-12-29T01:37:03;4.43;;;3.70;;
3085;SDS011;52812;48.960;9.108;2023-12-29T01:39:29;4.70;;;3.97;;
3085;SDS011;52812;48.960;9.108;2023-12-29T01:41:55;5.07;;;4.27;;
3085;SDS011;52812;48.960;9.108;2023-12-29T01:44:21;6.00;;;4.17;;
3085;SDS011;52812;48.960;9.108;2023-12-29T01:46:49;5.77;;;4.10;;
3085;SDS011;52812;48.960;9.108;2023-12-29T01:49:16;6.97;;;4.43;;
3085;SDS011;52812;48.960;9.108;2023-12-29T01:51:43;6.30;;;4.27;;
3085;SDS011;52812;48.960;9.108;2023-12-29T01:54:10;4.63;;;4.10;;
3085;SDS011;52812;48.960;9.108;2023-12-29T01:56:37;5.10;;;4.23;;
3085;SDS011;52812;48.960;9.108;2023-12-29T01:59:03;4.57;;;3.73;;
3085;SDS011;52812;48.960;9.108;2023-12-29T02:01:29;5.60;;;4.07;;
3085;SDS011;52812;48.960;9.108;2023-12-29T02:03:55;12.90;;;4.80;;
3085;SDS011;52812;48.960;9.108;2023-12-29T02:06:21;7.07;;;4.10;;
3085;SDS011;52812;48.960;9.108;2023-12-29T02:08:48;5.67;;;4.13;;
3085;SDS011;52812;48.960;9.108;2023-12-29T02:11:14;6.07;;;3.93;;
3085;SDS011;52812;48.960;9.108;2023-12-29T02:13:41;5.83;;;4.30;;
3085;SDS011;52812;48.960;9.108;2023-12-29T02:16:07;5.47;;;3.90;;
3085;SDS011;52812;48.960;9.108;2023-12-29T02:18:38;5.90;;;4.27;;
3085;SDS011;52812;48.960;9.108;2023-12-29T02:21:07;4.90;;;3.77;;
3085;SDS011;52812;48.960;9.108;2023-12-29T02:23:33;4.70;;;3.90;;
3085;SDS011;52812;48.960;9.108;2023-12-29T02:26:01;4.83;;;3.90;;
3085;SDS011;52812;48.960;9.108;2023-12-29T02:28:32;4.83;;;4.07;;
3085;SDS011;52812;48.960;9.108;2023-12-29T02:31:01;5.53;;;4.57;;
3085;SDS011;52812;48.960;9.108;2023-12-29T02:33:32;5.77;;;4.70;;
3085;SDS011;52812;48.960;9.108;2023-12-29T02:36:05;4.90;;;4.20;;
3085;SDS011;52812;48.960;9.108;2023-12-29T02:38:31;6.47;;;4.13;;
3085;SDS011;52812;48.960;9.108;2023-12-29T02:40:58;5.93;;;4.00;;
3085;SDS011;52812;48.960;9.108;2023-12-29T02:43:24;5.23;;;3.83;;
3085;SDS011;52812;48.960;9.108;2023-12-29T02:45:50;6.17;;;3.90;;
3085;SDS011;52812;48.960;9.108;2023-12-29T02:48:15;5.20;;;3.87;;
3085;SDS011;52812;48.960;9.108;2023-12-29T02:50:41;4.60;;;3.80;;
3085;SDS011;52812;48.960;9.108;2023-12-29T02:53:06;4.50;;;4.00;;
3085;SDS011;52812;48.960;9.108;2023-12-29T02:55:32;4.80;;;3.90;;
3085;SDS011;52812;48.960;9.108;2023-12-29T02:57:58;6.00;;;4.47;;
3085;SDS011;52812;48.960;9.108;2023-12-29T03:00:23;5.30;;;3.87;;
3085;SDS011;52812;48.960;9.108;2023-12-29T03:02:49;9.83;;;4.40;;
3085;SDS011;52812;48.960;9.108;2023-12-29T03:05:14;5.30;;;3.90;;
3085;SDS011;52812;48.960;9.108;2023-12-29T03:07:40;4.43;;;3.73;;
3085;SDS011;52812;48.960;9.108;2023-12-29T03:10:06;4.27;;;3.87;;
3085;SDS011;52812;48.960;9.108;2023-12-29T03:12:32;5.43;;;3.93;;
3085;SDS011;52812;48.960;9.108;2023-12-29T03:14:57;6.17;;;4.03;;
3085;SDS011;52812;48.960;9.108;2023-12-29T03:17:23;4.57;;;4.17;;
3085;SDS011;52812;48.960;9.108;2023-12-29T03:19:49;6.90;;;4.33;;
3085;SDS011;52812;48.960;9.108;2023-12-29T03:22:14;6.07;;;4.13;;
3085;SDS011;52812;48.960;9.108;2023-12-29T03:24:40;6.00;;;4.30;;
3085;SDS011;52812;48.960;9.108;2023-12-29T03:27:07;4.57;;;4.00;;
3085;SDS011;52812;48.960;9.108;2023-12-29T03:29:32;4.37;;;3.90;;
3085;SDS011;52812;48.960;9.108;2023-12-29T03:31:58;5.70;;;4.10;;
3085;SDS011;52812;48.960;9.108;2023-12-29T03:34:23;5.40;;;4.00;;
3085;SDS011;52812;48.960;9.108;2023-12-29T03:36:49;5.87;;;4.10;;
3085;SDS011;52812;48.960;9.108;2023-12-29T03:39:15;6.60;;;4.53;;
3085;SDS011;52812;48.960;9.108;2023-12-29T03:41:40;5.70;;;3.90;;
3085;SDS011;52812;48.960;9.108;2023-12-29T03:44:06;5.20;;;4.00;;
3085;SDS011;52812;48.960;9.108;2023-12-29T03:46:31;6.83;;;4.33;;
3085;SDS011;52812;48.960;9.108;2023-12-29T03:48:57;6.40;;;4.23;;
3085;SDS011;52812;48.960;9.108;2023-12-29T03:51:23;6.77;;;4.40;;
3085;SDS011;52812;48.960;9.108;2023-12-29T03:53:49;5.80;;;4.00;;
3085;SDS011;52812;48.960;9.108;2023-12-29T03:56:15;4.87;;;3.97;;
3085;SDS011;52812;48.960;9.108;2023-12-29T03:58:42;5.07;;;3.90;;
3085;SDS011;52812;48.960;9.108;2023-12-29T04:01:11;5.00;;;4.10;;
3085;SDS011;52812;48.960;9.108;2023-12-29T04:03:38;4.83;;;4.13;;
3085;SDS011;52812;48.960;9.108;2023-12-29T04:06:04;8.70;;;3.93;;
3085;SDS011;52812;48.960;9.108;2023-12-29T04:08:30;4.53;;;3.90;;
3085;SDS011;52812;48.960;9.108;2023-12-29T04:10:55;4.63;;;4.20;;
3085;SDS011;52812;48.960;9.108;2023-12-29T04:13:21;5.60;;;4.60;;
3085;SDS011;52812;48.960;9.108;2023-12-29T04:15:47;6.17;;;4.43;;
3085;SDS011;52812;48.960;9.108;2023-12-29T04:18:12;5.67;;;4.33;;
3085;SDS011;52812;48.960;9.108;2023-12-29T04:20:38;6.00;;;4.40;;
3085;SDS011;52812;48.960;9.108;2023-12-29T04:23:05;5.00;;;4.10;;
3085;SDS011;52812;48.960;9.108;2023-12-29T04:25:32;5.50;;;4.13;;
3085;SDS011;52812;48.960;9.108;2023-12-29T04:27:58;6.27;;;4.27;;
3085;SDS011;52812;48.960;9.108;2023-12-29T04:30:23;6.03;;;4.40;;
3085;SDS011;52812;48.960;9.108;2023-12-29T04:32:49;4.83;;;4.33;;
3085;SDS011;52812;48.960;9.108;2023-12-29T04:35:15;5.20;;;4.10;;
3085;SDS011;52812;48.960;9.108;2023-12-29T04:37:41;7.23;;;4.60;;
3085;SDS011;52812;48.960;9.108;2023-12-29T04:40:09;7.87;;;5.03;;
3085;SDS011;52812;48.960;9.108;2023-12-29T04:42:35;7.10;;;4.73;;
3085;SDS011;52812;48.960;9.108;2023-12-29T04:45:00;6.60;;;4.33;;
3085;SDS011;52812;48.960;9.108;2023-12-29T04:47:26;4.97;;;4.30;;
3085;SDS011;52812;48.960;9.108;2023-12-29T04:49:51;4.90;;;4.10;;
3085;SDS011;52812;48.960;9.108;2023-12-29T04:52:17;5.33;;;4.33;;
3085;SDS011;52812;48.960;9.108;2023-12-29T04:54:43;7.07;;;4.63;;
3085;SDS011;52812;48.960;9.108;2023-12-29T04:57:09;4.53;;;4.00;;
3085;SDS011;52812;48.960;9.108;2023-12-29T04:59:35;5.80;;;4.50;;
3085;SDS011;52812;48.960;9.108;2023-12-29T05:02:00;5.80;;;4.50;;
3085;SDS011;52812;48.960;9.108;2023-12-29T05:04:26;4.33;;;3.77;;
3085;SDS011;52812;48.960;9.108;2023-12-29T05:06:51;5.13;;;3.83;;
3085;SDS011;52812;48.960;9.108;2023-12-29T05:09:17;5.20;;;3.60;;
3085;SDS011;52812;48.960;9.108;2023-12-29T05:11:42;5.23;;;4.50;;
3085;SDS011;52812;48.960;9.108;2023-12-29T05:14:08;5.73;;;3.93;;
3085;SDS011;52812;48.960;9.108;2023-12-29T05:16:34;4.83;;;3.90;;
3085;SDS011;52812;48.960;9.108;2023-12-29T05:19:00;6.00;;;4.00;;
3085;SDS011;52812;48.960;9.108;2023-12-29T05:21:25;5.27;;;3.70;;
3085;SDS011;52812;48.960;9.108;2023-12-29T05:23:51;4.30;;;3.53;;
3085;SDS011;52812;48.960;9.108;2023-12-29T05:26:17;4.40;;;3.57;;
3085;SDS011;52812;48.960;9.108;2023-12-29T05:28:43;4.03;;;3.43;;
3085;SDS011;52812;48.960;9.108;2023-12-29T05:31:08;4.03;;;3.13;;
3085;SDS011;52812;48.960;9.108;2023-12-29T05:33:34;6.33;;;3.50;;
3085;SDS011;52812;48.960;9.108;2023-12-29T05:36:07;6.00;;;3.40;;
3085;SDS011;52812;48.960;9.108;2023-12-29T05:38:34;3.90;;;3.43;;
3085;SDS011;52812;48.960;9.108;2023-12-29T05:41:01;5.70;;;3.73;;
3085;SDS011;52812;48.960;9.108;2023-12-29T05:43:28;3.77;;;3.27;;
3085;SDS011;52812;48.960;9.108;2023-12-29T05:45:55;4.23;;;3.70;;
3085;SDS011;52812;48.960;9.108;2023-12-29T05:48:21;4.80;;;3.83;;
3085;SDS011;52812;48.960;9.108;2023-12-29T05:50:47;3.87;;;3.40;;
3085;SDS011;52812;48.960;9.108;2023-12-29T05:53:12;3.93;;;3.27;;
3085;SDS011;52812;48.960;9.108;2023-12-29T05:55:40;4.70;;;3.80;;
3085;SDS011;52812;48.960;9.108;2023-12-29T05:58:05;5.87;;;4.57;;
3085;SDS011;52812;48.960;9.108;2023-12-29T06:00:31;5.50;;;4.30;;
3085;SDS011;52812;48.960;9.108;2023-12-29T06:02:57;4.23;;;3.53;;
3085;SDS011;52812;48.960;9.108;2023-12-29T06:05:22;4.60;;;3.53;;
3085;SDS011;52812;48.960;9.108;2023-12-29T06:07:48;6.33;;;3.80;;
3085;SDS011;52812;48.960;9.108;2023-12-29T06:10:14;3.83;;;3.43;;
3085;SDS011;52812;48.960;9.108;2023-12-29T06:12:39;3.50;;;3.20;;
3085;SDS011;52812;48.960;9.108;2023-12-29T06:15:05;4.23;;;3.40;;
3085;SDS011;52812;48.960;9.108;2023-12-29T06:17:31;4.47;;;3.33;;
3085;SDS011;52812;48.960;9.108;2023-12-29T06:19:57;5.40;;;3.43;;
3085;SDS011;52812;48.960;9.108;2023-12-29T06:22:23;4.47;;;3.60;;
3085;SDS011;52812;48.960;9.108;2023-12-29T06:24:48;5.10;;;3.47;;
3085;SDS011;52812;48.960;9.108;2023-12-29T06:27:14;4.50;;;3.20;;
3085;SDS011;52812;48.960;9.108;2023-12-29T06:29:41;3.80;;;3.47;;
3085;SDS011;52812;48.960;9.108;2023-12-29T06:32:07;4.90;;;3.67;;
3085;SDS011;52812;48.960;9.108;2023-12-29T06:34:33;4.50;;;3.70;;
3085;SDS011;52812;48.960;9.108;2023-12-29T06:36:59;5.13;;;3.90;;
3085;SDS011;52812;48.960;9.108;2023-12-29T06:39:25;4.17;;;3.60;;
3085;SDS011;52812;48.960;9.108;2023-12-29T06:41:51;3.93;;;3.43;;
3085;SDS011;52812;48.960;9.108;2023-12-29T06:44:16;8.13;;;3.67;;
3085;SDS011;52812;48.960;9.108;2023-12-29T06:46:42;4.80;;;3.53;;
3085;SDS011;52812;48.960;9.108;2023-12-29T06:49:08;6.30;;;4.13;;
3085;SDS011;52812;48.960;9.108;2023-12-29T06:51:34;3.93;;;3.47;;
3085;SDS011;52812;48.960;9.108;2023-12-29T06:54:00;5.27;;;3.97;;
3085;SDS011;52812;48.960;9.108;2023-12-29T06:56:26;6.30;;;4.30;;
3085;SDS011;52812;48.960;9.108;2023-12-29T06:58:52;4.20;;;3.77;;
3085;SDS011;52812;48.960;9.108;2023-12-29T07:01:17;5.40;;;4.03;;
3085;SDS011;52812;48.960;9.108;2023-12-29T07:03:43;5.97;;;4.30;;
3085;SDS011;52812;48.960;9.108;2023-12-29T07:06:10;4.47;;;3.90;;
3085;SDS011;52812;48.960;9.108;2023-12-29T07:08:35;4.60;;;3.93;;
3085;SDS011;52812;48.960;9.108;2023-12-29T07:11:02;4.57;;;3.60;;
3085;SDS011;52812;48.960;9.108;2023-12-29T07:13:27;4.63;;;3.63;;
3085;SDS011;52812;48.960;9.108;2023-12-29T07:15:53;4.83;;;3.90;;
3085;SDS011;52812;48.960;9.108;2023-12-29T07:18:19;4.37;;;3.57;;
3085;SDS011;52812;48.960;9.108;2023-12-29T07:20:45;4.27;;;3.83;;
3085;SDS011;52812;48.960;9.108;2023-12-29T07:23:10;4.70;;;3.50;;
3085;SDS011;52812;48.960;9.108;2023-12-29T07:25:36;4.17;;;3.77;;
3085;SDS011;52812;48.960;9.108;2023-12-29T07:28:01;4.00;;;3.43;;
3085;SDS011;52812;48.960;9.108;2023-12-29T07:30:27;4.33;;;3.60;;
3085;SDS011;52812;48.960;9.108;2023-12-29T07:32:53;3.80;;;3.33;;
3085;SDS011;52812;48.960;9.108;2023-12-29T07:35:18;5.17;;;3.73;;
3085;SDS011;52812;48.960;9.108;2023-12-29T07:37:44;4.97;;;3.70;;
3085;SDS011;52812;48.960;9.108;2023-12-29T07:40:11;5.03;;;3.63;;
3085;SDS011;52812;48.960;9.108;2023-12-29T07:42:39;6.63;;;3.67;;
3085;SDS011;52812;48.960;9.108;2023-12-29T07:45:05;3.87;;;3.43;;
3085;SDS011;52812;48.960;9.108;2023-12-29T07:47:31;4.03;;;3.47;;
3085;SDS011;52812;48.960;9.108;2023-12-29T07:49:57;4.70;;;3.70;;
3085;SDS011;52812;48.960;9.108;2023-12-29T07:52:22;4.93;;;3.63;;
3085;SDS011;52812;48.960;9.108;2023-12-29T07:54:48;7.73;;;5.33;;
3085;SDS011;52812;48.960;9.108;2023-12-29T07:57:14;8.43;;;4.17;;
3085;SDS011;52812;48.960;9.108;2023-12-29T07:59:40;5.10;;;3.47;;
3085;SDS011;52812;48.960;9.108;2023-12-29T08:02:05;3.87;;;3.20;;
3085;SDS011;52812;48.960;9.108;2023-12-29T08:04:31;3.93;;;3.40;;
3085;SDS011;52812;48.960;9.108;2023-12-29T08:06:57;4.03;;;3.60;;
3085;SDS011;52812;48.960;9.108;2023-12-29T08:09:22;4.17;;;3.47;;
3085;SDS011;52812;48.960;9.108;2023-12-29T08:11:48;5.10;;;3.53;;
3085;SDS011;52812;48.960;9.108;2023-12-29T08:14:14;4.70;;;3.27;;
3085;SDS011;52812;48.960;9.108;2023-12-29T08:16:40;4.53;;;3.70;;
3085;SDS011;52812;48.960;9.108;2023-12-29T08:19:06;3.97;;;3.20;;
3085;SDS011;52812;48.960;9.108;2023-12-29T08:21:32;3.50;;;2.93;;
3085;SDS011;52812;48.960;9.108;2023-12-29T08:23:58;4.20;;;3.40;;
3085;SDS011;52812;48.960;9.108;2023-12-29T08:26:24;3.03;;;2.73;;
3085;SDS011;52812;48.960;9.108;2023-12-29T08:28:50;3.50;;;3.20;;
3085;SDS011;52812;48.960;9.108;2023-12-29T08:31:18;3.50;;;3.10;;
3085;SDS011;52812;48.960;9.108;2023-12-29T08:33:44;4.03;;;3.20;;
3085;SDS011;52812;48.960;9.108;2023-12-29T08:36:11;4.43;;;3.10;;
3085;SDS011;52812;48.960;9.108;2023-12-29T08:38:37;3.83;;;3.00;;
3085;SDS011;52812;48.960;9.108;2023-12-29T08:41:02;3.60;;;3.20;;
3085;SDS011;52812;48.960;9.108;2023-12-29T08:43:29;3.00;;;2.67;;
3085;SDS011;52812;48.960;9.108;2023-12-29T08:45:55;3.23;;;2.90;;
3085;SDS011;52812;48.960;9.108;2023-12-29T08:48:21;3.83;;;2.90;;
3085;SDS011;52812;48.960;9.108;2023-12-29T08:50:47;4.50;;;3.13;;
3085;SDS011;52812;48.960;9.108;2023-12-29T08:53:12;3.70;;;2.90;;
3085;SDS011;52812;48.960;9.108;2023-12-29T08:55:38;3.00;;;2.70;;
3085;SDS011;52812;48.960;9.108;2023-12-29T08:58:04;4.17;;;3.17;;
3085;SDS011;52812;48.960;9.108;2023-12-29T09:00:29;3.97;;;3.27;;
3085;SDS011;52812;48.960;9.108;2023-12-29T09:02:55;4.23;;;2.83;;
3085;SDS011;52812;48.960;9.108;2023-12-29T09:05:21;4.67;;;3.00;;
3085;SDS011;52812;48.960;9.108;2023-12-29T09:07:47;3.57;;;2.97;;
3085;SDS011;52812;48.960;9.108;2023-12-29T09:10:13;3.80;;;2.90;;
3085;SDS011;52812;48.960;9.108;2023-12-29T09:12:39;3.47;;;2.80;;
3085;SDS011;52812;48.960;9.108;2023-12-29T09:15:06;3.67;;;2.57;;
3085;SDS011;52812;48.960;9.108;2023-12-29T09:17:32;3.10;;;2.80;;
3085;SDS011;52812;48.960;9.108;2023-12-29T09:19:58;3.33;;;3.00;;
3085;SDS011;52812;48.960;9.108;2023-12-29T09:22:24;3.50;;;3.07;;
3085;SDS011;52812;48.960;9.108;2023-12-29T09:24:49;3.73;;;3.00;;
3085;SDS011;52812;48.960;9.108;2023-12-29T09:27:15;3.50;;;2.80;;
3085;SDS011;52812;48.960;9.108;2023-12-29T09:29:41;4.93;;;2.60;;
3085;SDS011;52812;48.960;9.108;2023-12-29T09:32:06;5.20;;;2.77;;
3085;SDS011;52812;48.960;9.108;2023-12-29T09:34:32;3.20;;;2.83;;
3085;SDS011;52812;48.960;9.108;2023-12-29T09:36:58;4.30;;;2.77;;
3085;SDS011;52812;48.960;9.108;2023-12-29T09:39:23;3.20;;;2.83;;
3085;SDS011;52812;48.960;9.108;2023-12-29T09:41:51;3.17;;;2.60;;
3085;SDS011;52812;48.960;9.108;2023-12-29T09:44:18;3.00;;;2.53;;
3085;SDS011;52812;48.960;9.108;2023-12-29T09:46:48;3.57;;;2.80;;
3085;SDS011;52812;48.960;9.108;2023-12-29T09:49:16;3.90;;;2.63;;
3085;SDS011;52812;48.960;9.108;2023-12-29T09:51:43;2.80;;;2.50;;
3085;SDS011;52812;48.960;9.108;2023-12-29T09:54:10;2.77;;;2.40;;
3085;SDS011;52812;48.960;9.108;2023-12-29T09:56:36;3.10;;;2.50;;
3085;SDS011;52812;48.960;9.108;2023-12-29T09:59:02;3.37;;;2.80;;
3085;SDS011;52812;48.960;9.108;2023-12-29T10:01:29;4.63;;;3.67;;
3085;SDS011;52812;48.960;9.108;2023-12-29T10:03:55;7.70;;;4.63;;
3085;SDS011;52812;48.960;9.108;2023-12-29T10:06:23;5.20;;;3.77;;
3085;SDS011;52812;48.960;9.108;2023-12-29T10:08:50;3.47;;;2.70;;
3085;SDS011;52812;48.960;9.108;2023-12-29T10:11:17;4.07;;;2.90;;
3085;SDS011;52812;48.960;9.108;2023-12-29T10:13:46;3.10;;;2.80;;
3085;SDS011;52812;48.960;9.108;2023-12-29T10:16:32;3.27;;;2.70;;
3085;SDS011;52812;48.960;9.108;2023-12-29T10:19:48;2.63;;;2.37;;
3085;SDS011;52812;48.960;9.108;2023-12-29T10:22:03;3.50;;;3.07;;
3085;SDS011;52812;48.960;9.108;2023-12-29T10:24:33;2.70;;;2.47;;
3085;SDS011;52812;48.960;9.108;2023-12-29T10:27:00;2.50;;;2.30;;
3085;SDS011;52812;48.960;9.108;2023-12-29T10:29:26;3.70;;;2.20;;
3085;SDS011;52812;48.960;9.108;2023-12-29T10:31:52;4.20;;;2.00;;
3085;SDS011;52812;48.960;9.108;2023-12-29T10:34:22;2.17;;;2.00;;
3085;SDS011;52812;48.960;9.108;2023-12-29T10:36:55;2.20;;;2.00;;
3085;SDS011;52812;48.960;9.108;2023-12-29T10:39:22;2.37;;;2.17;;
3085;SDS011;52812;48.960;9.108;2023-12-29T10:41:48;2.30;;;2.10;;
3085;SDS011;52812;48.960;9.108;2023-12-29T10:44:15;2.20;;;2.00;;
3085;SDS011;52812;48.960;9.108;2023-12-29T10:46:41;1.87;;;1.77;;
3085;SDS011;52812;48.960;9.108;2023-12-29T10:49:10;2.03;;;1.57;;
3085;SDS011;52812;48.960;9.108;2023-12-29T10:51:37;1.70;;;1.60;;
3085;SDS011;52812;48.960;9.108;2023-12-29T10:54:04;1.80;;;1.70;;
3085;SDS011;52812;48.960;9.108;2023-12-29T10:56:31;1.97;;;1.80;;
3085;SDS011;52812;48.960;9.108;2023-12-29T10:59:00;2.03;;;1.70;;
3085;SDS011;52812;48.960;9.108;2023-12-29T11:01:28;1.73;;;1.63;;
3085;SDS011;52812;48.960;9.108;2023-12-29T11:04:01;1.60;;;1.50;;
3085;SDS011;52812;48.960;9.108;2023-12-29T11:06:29;1.80;;;1.70;;
3085;SDS011;52812;48.960;9.108;2023-12-29T11:08:55;2.00;;;1.70;;
3085;SDS011;52812;48.960;9.108;2023-12-29T11:11:21;1.70;;;1.60;;
3085;SDS011;52812;48.960;9.108;2023-12-29T11:13:50;1.60;;;1.50;;
3085;SDS011;52812;48.960;9.108;2023-12-29T11:16:17;2.07;;;1.57;;
3085;SDS011;52812;48.960;9.108;2023-12-29T11:18:46;1.80;;;1.60;;
3085;SDS011;52812;48.960;9.108;2023-12-29T11:21:14;3.83;;;1.60;;
3085;SDS011;52812;48.960;9.108;2023-12-29T11:23:41;2.53;;;1.70;;
3085;SDS011;52812;48.960;9.108;2023-12-29T11:26:06;2.03;;;1.83;;
3085;SDS011;52812;48.960;9.108;2023-12-29T11:29:53;3.10;;;1.80;;
3085;SDS011;52812;48.960;9.108;2023-12-29T11:32:20;4.27;;;2.70;;
3085;SDS011;52812;48.960;9.108;2023-12-29T11:34:54;3.00;;;2.00;;
3085;SDS011;52812;48.960;9.108;2023-12-29T11:37:37;1.47;;;1.37;;
3085;SDS011;52812;48.960;9.108;2023-12-29T11:40:23;2.60;;;1.40;;
3085;SDS011;52812;48.960;9.108;2023-12-29T11:43:20;1.67;;;1.50;;
3085;SDS011;52812;48.960;9.108;2023-12-29T11:45:46;2.17;;;1.90;;
3085;SDS011;52812;48.960;9.108;2023-12-29T11:48:11;1.80;;;1.60;;
3085;SDS011;52812;48.960;9.108;2023-12-29T11:50:38;2.20;;;1.70;;
3085;SDS011;52812;48.960;9.108;2023-12-29T11:53:07;2.10;;;1.80;;
3085;SDS011;52812;48.960;9.108;2023-12-29T11:55:36;2.10;;;1.90;;
3085;SDS011;52812;48.960;9.108;2023-12-29T11:58:24;1.60;;;1.50;;
3085;SDS011;52812;48.960;9.108;2023-12-29T12:00:56;2.10;;;1.80;;
3085;SDS011;52812;48.960;9.108;2023-12-29T12:03:25;1.60;;;1.50;;
3085;SDS011;52812;48.960;9.108;2023-12-29T12:05:52;1.43;;;1.30;;
3085;SDS011;52812;48.960;9.108;2023-12-29T12:08:36;2.00;;;1.67;;
3085;SDS011;52812;48.960;9.108;2023-12-29T12:13:56;1.50;;;1.40;;
3085;SDS011;52812;48.960;9.108;2023-12-29T12:19:14;1.40;;;1.30;;
3085;SDS011;52812;48.960;9.108;2023-12-29T12:21:41;3.87;;;1.57;;
3085;SDS011;52812;48.960;9.108;2023-12-29T12:24:14;1.53;;;1.43;;
3085;SDS011;52812;48.960;9.108;2023-12-29T12:26:43;1.70;;;1.60;;
3085;SDS011;52812;48.960;9.108;2023-12-29T12:29:08;1.40;;;1.30;;
3085;SDS011;52812;48.960;9.108;2023-12-29T12:31:34;1.53;;;1.43;;
3085;SDS011;52812;48.960;9.108;2023-12-29T12:34:00;1.60;;;1.50;;
3085;SDS011;52812;48.960;9.108;2023-12-29T12:36:26;3.00;;;1.40;;
3085;SDS011;52812;48.960;9.108;2023-12-29T12:38:52;1.50;;;1.40;;
3085;SDS011;52812;48.960;9.108;2023-12-29T12:41:25;1.93;;;1.40;;
3085;SDS011;52812;48.960;9.108;2023-12-29T12:44:11;1.33;;;1.23;;
3085;SDS011;52812;48.960;9.108;2023-12-29T12:46:56;3.37;;;1.50;;
3085;SDS011;52812;48.960;9.108;2023-12-29T12:49:23;1.40;;;1.30;;
3085;SDS011;52812;48.960;9.108;2023-12-29T12:51:49;2.23;;;1.30;;
3085;SDS011;52812;48.960;9.108;2023-12-29T12:54:18;1.50;;;1.40;;
3085;SDS011;52812;48.960;9.108;2023-12-29T12:56:45;2.30;;;1.73;;
3085;SDS011;52812;48.960;9.108;2023-12-29T12:59:11;1.90;;;1.43;;
3085;SDS011;52812;48.960;9.108;2023-12-29T13:01:38;1.60;;;1.50;;
3085;SDS011;52812;48.960;9.108;2023-12-29T13:04:05;1.70;;;1.60;;
3085;SDS011;52812;48.960;9.108;2023-12-29T13:06:34;2.20;;;1.80;;
3085;SDS011;52812;48.960;9.108;2023-12-29T13:09:06;3.10;;;1.50;;
3085;SDS011;52812;48.960;9.108;2023-12-29T13:11:36;1.60;;;1.50;;
3085;SDS011;52812;48.960;9.108;2023-12-29T13:14:02;1.80;;;1.70;;
3085;SDS011;52812;48.960;9.108;2023-12-29T13:16:33;1.70;;;1.60;;
3085;SDS011;52812;48.960;9.108;2023-12-29T13:19:20;2.20;;;1.90;;
3085;SDS011;52812;48.960;9.108;2023-12-29T13:21:51;4.40;;;1.87;;
3085;SDS011;52812;48.960;9.108;2023-12-29T13:24:23;3.10;;;1.80;;
3085;SDS011;52812;48.960;9.108;2023-12-29T13:26:54;1.97;;;1.70;;
3085;SDS011;52812;48.960;9.108;2023-12-29T13:29:23;1.90;;;1.70;;
3085;SDS011;52812;48.960;9.108;2023-12-29T13:31:52;1.90;;;1.80;;
3085;SDS011;52812;48.960;9.108;2023-12-29T13:34:27;2.30;;;2.10;;
3085;SDS011;52812;48.960;9.108;2023-12-29T13:37:09;1.90;;;1.70;;
3085;SDS011;52812;48.960;9.108;2023-12-29T13:42:31;2.20;;;1.80;;
3085;SDS011;52812;48.960;9.108;2023-12-29T13:44:58;2.13;;;1.93;;
3085;SDS011;52812;48.960;9.108;2023-12-29T13:47:26;2.87;;;1.90;;
3085;SDS011;52812;48.960;9.108;2023-12-29T13:49:52;3.70;;;2.00;;
3085;SDS011;52812;48.960;9.108;2023-12-29T13:52:18;2.87;;;2.10;;
3085;SDS011;52812;48.960;9.108;2023-12-29T13:54:45;2.20;;;2.00;;
3085;SDS011;52812;48.960;9.108;2023-12-29T13:57:12;2.33;;;2.13;;
3085;SDS011;52812;48.960;9.108;2023-12-29T13:59:38;4.20;;;2.37;;
3085;SDS011;52812;48.960;9.108;2023-12-29T14:02:23;2.30;;;2.10;;
3085;SDS011;52812;48.960;9.108;2023-12-29T14:07:52;2.10;;;1.90;;
3085;SDS011;52812;48.960;9.108;2023-12-29T14:10:21;3.00;;;2.70;;
3085;SDS011;52812;48.960;9.108;2023-12-29T14:12:47;2.90;;;2.60;;
3085;SDS011;52812;48.960;9.108;2023-12-29T14:15:13;2.90;;;2.23;;
3085;SDS011;52812;48.960;9.108;2023-12-29T14:17:38;3.93;;;2.87;;
3085;SDS011;52812;48.960;9.108;2023-12-29T14:20:07;3.17;;;2.47;;
3085;SDS011;52812;48.960;9.108;2023-12-29T14:22:34;2.63;;;2.20;;
3085;SDS011;52812;48.960;9.108;2023-12-29T14:25:03;2.97;;;2.73;;
3085;SDS011;52812;48.960;9.108;2023-12-29T14:27:30;5.60;;;4.20;;
3085;SDS011;52812;48.960;9.108;2023-12-29T14:29:56;6.40;;;4.77;;
3085;SDS011;52812;48.960;9.108;2023-12-29T14:32:22;4.60;;;3.47;;
3085;SDS011;52812;48.960;9.108;2023-12-29T14:34:49;4.77;;;4.20;;
3085;SDS011;52812;48.960;9.108;2023-12-29T14:37:20;2.87;;;2.63;;
3085;SDS011;52812;48.960;9.108;2023-12-29T14:39:49;2.57;;;2.20;;
3085;SDS011;52812;48.960;9.108;2023-12-29T14:42:15;3.23;;;2.30;;
3085;SDS011;52812;48.960;9.108;2023-12-29T14:44:41;3.20;;;2.40;;
3085;SDS011;52812;48.960;9.108;2023-12-29T14:47:07;3.07;;;2.47;;
3085;SDS011;52812;48.960;9.108;2023-12-29T14:49:32;2.37;;;2.17;;
3085;SDS011;52812;48.960;9.108;2023-12-29T14:51:58;4.50;;;2.60;;
3085;SDS011;52812;48.960;9.108;2023-12-29T14:54:24;2.90;;;2.10;;
3085;SDS011;52812;48.960;9.108;2023-12-29T14:56:49;2.67;;;2.10;;
3085;SDS011;52812;48.960;9.108;2023-12-29T14:59:15;4.10;;;2.63;;
3085;SDS011;52812;48.960;9.108;2023-12-29T15:01:41;2.40;;;2.20;;
3085;SDS011;52812;48.960;9.108;2023-12-29T15:04:07;3.27;;;2.20;;
3085;SDS011;52812;48.960;9.108;2023-12-29T15:06:36;2.60;;;2.10;;
3085;SDS011;52812;48.960;9.108;2023-12-29T15:09:02;2.93;;;2.10;;
3085;SDS011;52812;48.960;9.108;2023-12-29T15:11:28;2.33;;;2.13;;
3085;SDS011;52812;48.960;9.108;2023-12-29T15:13:54;2.03;;;1.83;;